Brisbane, Queensland, Australia, Latitude 27°S 23' 52", Longitude 152° E 55' 35", Elevation 76 m

Thu 4 Jun 2020 8:35:01 am: Temperature: 15.6 °C, Humidity: 56 %, Wind speed: 9 km/h, Wind Gust: 17 km/h, Rain today: 0.0 mm, MSLP: 1027.97 hPa

Website under continual development from 10 years of weather data. Please contact us if you find issues or like to provide feedback.

Recent Observations

This page presents the weather data from the last 72 hours at 30 minute intervals.

Last updated at 8:35:01 am AEST on Thu 4 June 2020.

Last 24 hours
Date/Time(AEST) Temp. ( °C) Dew Point ( °C) Relative Humidity (%) Apparent Temp. ( °C) Wind Direction Wind Speed (kph) Wind Gust (kph) Wind Speed (kts) Wind Gust (kts) MSL Pressure (hPa) Rain since midnight (mm)
4/06 8:35 am 15.6 6.8 56 13.1 SSW 9 17 5 9 1027.97 0.0
4/06 8:05 am 13.8 6.9 63 10.3 SSW 4 15 2 8 1027.57 0.0
4/06 7:35 am 10.9 6.8 76 10.2 CALM 0 0 0 0 1027.29 0.0
4/06 7:05 am 9.3 5.8 79 8.3 CALM 0 0 0 0 1026.92 0.0
4/06 6:35 am 8.6 5.2 79 7.5 CALM 0 2 0 1 1026.48 0.0
4/06 6:05 am 8.5 5.4 81 7.5 CALM 0 0 0 0 1026.08 0.0
4/06 5:35 am 8.4 5.5 82 7.4 CALM 0 4 0 2 1025.74 0.0
4/06 5:05 am 8.7 5.9 83 7.8 CALM 0 0 0 0 1025.43 0.0
4/06 4:35 am 9.3 6.0 80 8.4 CALM 0 0 0 0 1025.16 0.0
4/06 4:05 am 10.3 6.4 77 9.5 CALM 0 0 0 0 1024.92 0.0
4/06 3:35 am 11.3 6.7 73 10.5 CALM 0 4 0 2 1024.89 0.0
4/06 3:05 am 11.8 6.9 72 9 SW 3 8 2 4 1024.96 0.0
4/06 2:35 am 12.1 7.2 72 7.2 SSW 6 12 3 6 1025.03 0.0
4/06 2:05 am 10.8 7.0 77 10.1 CALM 0 6 0 3 1025.13 0.0
4/06 1:35 am 9.9 6.7 80 9.1 CALM 0 6 0 3 1025.33 0.0
4/06 1:05 am 9.6 6.7 82 8.8 CALM 0 0 0 0 1025.09 0.0
4/06 12:35 am 9.7 6.6 81 8.9 CALM 0 0 0 0 1024.99 0.0
4/06 12:05 am 10.0 6.9 81 9.3 CALM 0 0 0 0 1025.03 0.0
3/06 11:35 pm 9.9 6.8 81 9.2 CALM 0 4 0 2 1025.13 0.0
3/06 11:05 pm 9.6 6.7 82 8.8 CALM 0 2 0 1 1025.26 0.0
3/06 10:35 pm 9.5 6.4 81 8.7 CALM 0 0 0 0 1025.23 0.0
3/06 10:05 pm 9.8 6.5 80 9 CALM 0 0 0 0 1025.20 0.0
3/06 9:35 pm 10.1 6.4 78 9.3 CALM 0 0 0 0 1025.26 0.0
3/06 9:05 pm 10.6 6.6 76 9.8 CALM 0 0 0 0 1025.06 0.0
3/06 8:35 pm 10.9 6.6 75 10.1 CALM 0 0 0 0 1025.06 0.0
3/06 8:05 pm 11.2 6.5 73 10.4 CALM 0 4 0 2 1024.69 0.0
3/06 7:35 pm 11.7 6.4 70 10.9 CALM 0 2 0 1 1024.25 0.0
3/06 7:05 pm 12.3 6.6 68 11.5 CALM 0 0 0 0 1023.77 0.0
3/06 6:35 pm 13.1 7.1 67 12.4 CALM 0 0 0 0 1022.93 0.0
3/06 6:05 pm 14.4 7.7 64 13.9 CALM 0 0 0 0 1022.25 0.0
3/06 5:35 pm 15.8 6.8 55 15.1 CALM 2 4 1 2 1020.86 0.0
3/06 5:05 pm 17.8 7.8 52 15.9 NNW 2 4 1 2 1020.86 0.0
3/06 4:35 pm 20.0 7.4 44 18.7 NNW 1 4 1 2 1020.25 0.0
3/06 4:05 pm 20.8 5.6 37 18.4 NNW 2 6 1 3 1019.95 0.0
3/06 3:35 pm 21.3 5.2 35 18.1 SSW 3 8 2 4 1019.57 0.0
3/06 3:05 pm 21.7 4.7 33 16.3 W 6 10 3 5 1019.44 0.0
3/06 2:35 pm 22.2 5.1 33 16.9 NW 6 10 3 5 1019.44 0.0
3/06 2:05 pm 21.6 4.6 33 16.2 N 6 15 3 8 1019.54 0.0
3/06 1:35 pm 21.9 4.9 33 15.2 WSW 8 15 4 8 1019.84 0.0
3/06 1:05 pm 21.4 4.9 34 16.1 W 6 12 3 6 1019.84 0.0
3/06 12:35 pm 20.7 5.1 36 11.9 SW 11 19 6 10 1020.08 0.0
3/06 12:05 pm 20.2 5.1 37 13.5 W 8 15 4 8 1020.49 0.0
3/06 11:35 am 19.8 5.4 39 13.2 WNW 8 19 4 10 1020.96 0.0
3/06 11:05 am 19.1 5.1 40 11.7 WNW 9 17 5 9 1021.20 0.0
3/06 10:35 am 18.3 5.1 42 10.9 WNW 9 19 5 10 1021.30 0.0
3/06 10:05 am 17.7 4.9 43 11.7 NW 7 14 4 8 1021.57 0.0
3/06 9:35 am 16.6 4.6 45 11.2 WNW 6 17 3 9 1021.71 0.0
3/06 9:05 am 15.8 4.8 48 10.4 W 6 17 3 9 1021.67 0.0
24 to 48 hours ago
Date/Time(AEST) Temp. °C Dew Point °C Relative Humidity % Appararent Temp. °C Wind Direction Wind Speed (kph) Wind Gust (kph) Wind Speed (kts) Wind Gust (kts) MSL Pressure (hPa) Rain since midnight (mm)
3/06 8:35 am 14.0 4.3 52 10.6 SW 3 8 2 4 1021.57 0.0
3/06 8:05 am 11.8 4.0 59 8.4 WSW 3 10 2 5 1021.40 0.0
3/06 7:35 am 10.2 3.9 65 7.5 W 2 15 1 8 1021.17 0.0
3/06 7:05 am 8.2 3.3 71 6.7 CALM 0 2 0 1 1021.17 0.0
3/06 6:35 am 8.9 3.1 67 6 SW 2 4 1 2 1020.89 0.0
3/06 6:05 am 9.3 3.3 66 7.1 NW 1 8 1 4 1020.45 0.0
3/06 5:35 am 10.1 3.4 63 7.3 NE 2 6 1 3 1020.15 0.0
3/06 5:05 am 10.7 3.0 59 4.3 W 7 10 4 5 1019.57 0.0
3/06 4:35 am 10.5 2.8 59 6.9 W 3 17 2 9 1019.03 0.0
3/06 4:05 am 11.2 3.0 57 6.9 WSW 4 8 2 4 1019.24 0.0
3/06 3:35 am 11.1 2.6 56 2.5 W 10 23 5 12 1018.69 0.0
3/06 3:05 am 10.8 2.4 56 5 WSW 6 10 3 5 1019.00 0.0
3/06 2:35 am 10.7 2.0 55 6.9 W 3 12 2 6 1019.07 0.0
3/06 2:05 am 11.3 2.1 53 7.5 WNW 3 8 2 4 1019.27 0.0
3/06 1:35 am 11.7 1.9 51 7.2 WSW 4 17 2 9 1019.44 0.0
3/06 1:05 am 12.1 2.2 51 6.3 W 6 15 3 8 1019.44 0.0
3/06 12:35 am 12.4 2.2 50 5.2 WNW 8 15 4 8 1019.64 0.0
3/06 12:05 am 12.3 2.4 51 8.6 NE 3 12 2 6 1019.81 0.0
2/06 11:35 pm 12.9 2.4 49 7.1 WSW 6 17 3 9 1019.54 0.0
2/06 11:05 pm 12.9 2.1 48 7.8 WSW 5 15 3 8 1019.88 0.0
2/06 10:35 pm 13.3 1.9 46 5.3 WNW 9 23 5 12 1020.25 0.0
2/06 10:05 pm 13.4 1.7 45 -0.2 W 17 27 9 15 1020.05 0.0
2/06 9:35 pm 13.6 1.6 44 4.9 WSW 10 17 5 9 1020.49 0.0
2/06 9:05 pm 13.9 1.5 43 4.4 W 11 33 6 18 1020.69 0.0
2/06 8:35 pm 14.2 1.5 42 4.7 W 11 21 6 11 1020.32 0.0
2/06 8:05 pm 14.4 1.3 41 4.2 W 12 23 6 12 1019.95 0.0
2/06 7:35 pm 14.7 1.2 40 3.8 WNW 13 23 7 12 1019.61 0.0
2/06 7:05 pm 14.9 1.0 39 3.3 W 14 33 8 18 1019.44 0.0
2/06 6:35 pm 15.1 0.8 38 9.7 W 5 19 3 10 1019.34 0.0
2/06 6:05 pm 15.6 0.2 35 6.6 WNW 10 19 5 10 1018.83 0.0
2/06 5:35 pm 15.6 0.1 35 9.4 W 2 8 1 4 1018.05 0.0
2/06 5:05 pm 16.4 1.3 36 13.2 E 2 8 1 4 1018.05 0.0
2/06 4:35 pm 17.9 0.5 31 7.6 W 12 21 6 11 1017.17 0.0
2/06 4:05 pm 18.8 0.4 29 8.5 W 12 27 6 15 1016.76 0.0
2/06 3:35 pm 19.6 1.0 29 13.6 SW 6 10 3 5 1017.17 0.0
2/06 3:05 pm 19.8 0.3 27 10.2 WSW 11 15 6 8 1016.80 0.0
2/06 2:35 pm 20.2 0.0 26 8.4 WSW 14 23 8 12 1016.86 0.0
2/06 2:05 pm 19.9 0.3 27 11 SW 10 23 5 12 1016.66 0.0
2/06 1:35 pm 19.7 1.6 30 10.3 WNW 11 25 6 13 1016.56 0.0
2/06 1:05 pm 19.7 3.0 33 10.5 WNW 11 25 6 13 1017.03 0.0
2/06 12:35 pm 19.8 2.6 32 11.2 W 10 15 5 8 1017.44 0.0
2/06 12:05 pm 18.8 2.2 33 7.4 W 14 23 8 12 1017.91 0.0
2/06 11:35 am 18.2 2.1 34 6 W 15 37 8 20 1018.32 0.0
2/06 11:05 am 18.1 1.5 33 6.6 W 14 27 8 15 1018.56 0.0
2/06 10:35 am 17.7 2.1 35 6.2 WNW 14 29 8 16 1018.83 0.0
2/06 10:05 am 16.7 3.0 40 4 NNW 16 29 9 16 1018.86 0.0
2/06 9:35 am 16.1 3.2 42 3.4 NW 16 21 9 11 1019.07 0.0
2/06 9:05 am 15.8 3.6 44 6 WNW 12 23 6 12 1018.66 0.0
48 to 72 hours ago
Date/Time(AEST) Temp. °C Dew Point °C Relative Humidity % Appararent Temp. °C Wind Direction Wind Speed (kph) Wind Gust (kph) Wind Speed (kts) Wind Gust (kts) MSL Pressure (hPa) Rain since midnight (mm)
2/06 8:35 am 15.2 4.0 47 7.6 NW 9 17 5 9 1018.59 0.0
2/06 8:05 am 14.1 4.6 53 5.9 NW 10 19 5 10 1018.35 0.0
2/06 7:35 am 13.7 5.0 56 7 NW 8 21 4 11 1018.35 0.0
2/06 7:05 am 13.5 5.4 58 6.2 WNW 9 23 5 12 1018.29 0.0
2/06 6:35 am 13.8 5.7 58 5.1 NW 11 23 6 12 1017.91 0.0
2/06 6:05 am 14.1 5.7 57 6.8 WNW 9 17 5 9 1017.41 0.0
2/06 5:35 am 14.7 5.8 55 5.3 WNW 12 23 6 12 1017.07 0.0
2/06 5:05 am 15.3 5.5 52 6.6 WNW 11 25 6 13 1016.63 0.0
2/06 4:35 am 15.8 5.9 52 5.1 W 14 25 8 13 1016.15 0.0
2/06 4:05 am 16.2 6.3 52 6.3 WNW 13 25 7 13 1015.75 0.0
2/06 3:35 am 16.7 6.2 50 5.3 WNW 15 29 8 16 1015.31 0.0
2/06 3:05 am 17.3 6.5 49 6 WNW 15 25 8 13 1015.21 0.0
2/06 2:35 am 17.6 7.1 50 8.5 W 12 25 6 13 1015.14 0.0
2/06 2:05 am 17.9 8.7 55 9.2 WNW 12 17 6 9 1014.97 0.0
2/06 1:35 am 17.1 11.1 68 10.5 WNW 10 23 5 12 1014.90 0.0
2/06 1:05 am 14.7 13.5 93 15.8 CALM 0 0 0 0 1014.53 0.0
2/06 12:35 am 15.1 13.9 93 16.4 CALM 0 6 0 3 1014.70 0.0
2/06 12:05 am 15.6 14.3 92 17 CALM 0 4 0 2 1014.56 0.0
1/06 11:35 pm 16.1 14.6 91 17.6 CALM 0 4 0 2 1014.53 0.2
1/06 11:05 pm 16.8 15.3 91 16.4 WNW 3 4 2 2 1014.43 0.2
1/06 10:35 pm 17.2 15.7 91 14.9 NNW 6 8 3 4 1014.63 0.2
1/06 10:05 pm 16.8 15.5 92 16.5 NW 3 10 2 5 1014.66 0.2
1/06 9:35 pm 16.6 15.4 93 18.4 CALM 0 6 0 3 1014.93 0.2
1/06 9:05 pm 16.4 14.9 91 18 CALM 0 0 0 0 1015.21 0.2
1/06 8:35 pm 16.8 15.0 89 18.4 CALM 0 0 0 0 1015.24 0.2
1/06 8:05 pm 17.6 15.4 87 19.4 CALM 0 0 0 0 1015.27 0.2
1/06 7:35 pm 18.6 15.8 84 20.5 CALM 0 2 0 1 1015.24 0.2
1/06 7:05 pm 19.5 16.5 83 18.9 N 4 6 2 3 1015.00 0.2
1/06 6:35 pm 19.9 16.5 81 19.3 NNE 4 12 2 6 1014.70 0.2
1/06 6:05 pm 20.4 16.6 79 18.4 NNE 6 14 3 8 1014.53 0.2
1/06 5:35 pm 20.8 16.6 77 19.5 NNE 6 14 3 8 1014.22 0.2
1/06 5:05 pm 21.3 16.9 76 19.4 NNE 6 14 3 8 1014.22 0.2
1/06 4:35 pm 22.2 16.9 72 21 NE 5 12 3 6 1014.02 0.2
1/06 4:05 pm 23.1 15.9 64 20.2 NNE 7 14 4 8 1013.82 0.2
1/06 3:35 pm 23.5 16.0 63 19.2 NE 9 14 5 8 1013.82 0.2
1/06 3:05 pm 24.6 16.5 61 21.2 NNE 8 15 4 8 1014.05 0.2
1/06 2:35 pm 24.1 15.1 57 20.8 N 7 17 4 9 1014.16 0.2
1/06 2:05 pm 24.0 16.0 61 19 NNE 10 21 5 11 1014.16 0.2
1/06 1:35 pm 24.9 16.4 59 21.4 N 8 14 4 8 1014.36 0.2
1/06 1:05 pm 24.0 16.8 64 20.7 N 8 15 4 8 1014.83 0.2
1/06 12:35 pm 24.4 17.2 64 21.2 NE 8 14 4 8 1015.21 0.2
1/06 12:05 pm 23.6 16.3 64 19.4 N 9 14 5 8 1015.82 0.2
1/06 11:35 am 23.0 17.0 69 21.2 N 6 15 3 8 1016.39 0.2
1/06 11:05 am 21.8 16.8 73 22 NE 3 10 2 5 1017.03 0.2
1/06 10:35 am 20.7 16.7 78 23 CALM 0 0 0 0 1017.88 0.2
1/06 10:05 am 19.2 16.4 84 21.4 CALM 0 0 0 0 1018.12 0.2
1/06 9:35 am 17.9 15.7 87 19.8 CALM 0 0 0 0 1018.69 0.2
1/06 9:05 am 16.6 15.3 92 18.3 CALM 0 0 0 0 1019.00 0.2